CheckWX is a tool to help pilots better visualize weather data.  It is not intended as a substitute for an official pre-flight weather briefing.

06:35:48 UTC

LGEL TAF
Elefsis Airport
Elefsina, Greece
TAF LGEL 180500Z 1806/1906 VRB05KT 9999 FEW018 SCT025 PROB40 TEMPO 1806/1818 5000 RA SCT015 BKN020 PROB30 TEMPO 1806/1812 3000 TSRA SCT010 FEW018CB BKN020 BECMG 1807/1809 17012KT

Nov-18@
06:00 UTC

Nov-18 @ 06:00 UTC

Nov-18@
07:00 UTC

Nov-18 @ 07:00 UTC

TAF LGEL 180500Z 1806/1906 VRB05KT 9999 FEW018 SCT025
Wind
  • Variable at 5 KTS
Cloud Levels
  • Few at 1,800' AGL
  • Scattered at 2,500' AGL

Nov-18@
06:00 UTC

Nov-18 @ 06:00 UTC

Nov-18@
12:00 UTC

Nov-18 @ 12:00 UTC

PROB30 TEMPO 1806/1812 3000 TSRA SCT010 FEW018CB BKN020

Temporary - 30% Likelihood

Temporary - 30% Likelihood during this time.

Conditions
Thunderstorm, Rain
Cloud Levels
  • Scattered at 1,000' AGL
  • Few at 1,800' AGL
  • Broken at 2,000' AGL

Nov-18@
06:00 UTC

Nov-18 @ 06:00 UTC

Nov-18@
18:00 UTC

Nov-18 @ 18:00 UTC

PROB40 TEMPO 1806/1818 5000 RA SCT015 BKN020

Temporary - 40% Likelihood

Temporary - 40% Likelihood during this time.

Conditions
Rain
Cloud Levels
  • Scattered at 1,500' AGL
  • Broken at 2,000' AGL

Nov-18@
07:00 UTC

Nov-18 @ 07:00 UTC

Nov-19@
06:00 UTC

Nov-19 @ 06:00 UTC

BECMG 1807/1809 17012KT

Becoming

Becoming Conditions expected by Mon, Nov 18, 2019 @ 09:00 UTC

Wind
  • 170° at 12 KTS
Cloud Levels
  • Few at 1,800' AGL
  • Scattered at 2,500' AGL